Time;durP1;ratioP1;P1;durP2;ratioP2;P2;SDS_P1;SDS_P2;PMS_P1;PMS_P2;Temp;Humidity;BMP_temperature;BMP_pressure;BME280_temperature;BME280_humidity;BME280_pressure;Samples;Min_cycle;Max_cycle;Signal;HPM_P1;HPM_P2
2021/10/20 00:02:00;;;;;;;6.07;3.42;;;;;;;-141.50;100.00;63355.56;4993434;28;20054;-84
2021/10/20 00:04:27;;;;;;;5.20;3.30;;;;;;;-141.50;100.00;63355.56;4997377;28;20043;-84
2021/10/20 00:06:54;;;;;;;6.63;3.15;;;;;;;-141.50;100.00;63355.56;4981886;28;20257;-85
2021/10/20 00:09:20;;;;;;;5.68;3.30;;;;;;;-141.50;100.00;63355.56;4995127;28;20462;-84
2021/10/20 00:11:47;;;;;;;5.68;3.17;;;;;;;-141.50;100.00;63355.56;4993550;28;20053;-83
2021/10/20 00:14:14;;;;;;;7.13;3.53;;;;;;;-141.50;100.00;63355.56;4993874;28;20042;-83
2021/10/20 00:16:41;;;;;;;5.63;2.92;;;;;;;-141.50;100.00;63355.56;4992963;28;20050;-84
2021/10/20 00:19:08;;;;;;;7.18;3.35;;;;;;;-141.50;100.00;63355.56;4994580;28;20047;-82
2021/10/20 00:21:35;;;;;;;7.40;3.08;;;;;;;-141.50;100.00;63355.56;4994464;28;20050;-81
2021/10/20 00:24:02;;;;;;;7.35;3.25;;;;;;;-141.50;100.00;63355.56;4994547;28;20054;-85
2021/10/20 00:26:28;;;;;;;7.18;3.15;;;;;;;-141.50;100.00;63355.56;4983373;28;20045;-84
2021/10/20 00:28:55;;;;;;;7.13;2.95;;;;;;;-141.50;100.00;63355.56;4991979;28;20057;-84
2021/10/20 00:31:22;;;;;;;4.53;3.10;;;;;;;-141.50;100.00;63355.56;4996121;28;20038;-86
2021/10/20 00:33:48;;;;;;;7.05;3.28;;;;;;;-141.50;100.00;63355.56;4969086;28;20039;-83
2021/10/20 00:36:15;;;;;;;4.75;2.58;;;;;;;-141.50;100.00;63355.56;4972490;28;20035;-83
2021/10/20 00:38:42;;;;;;;3.95;2.60;;;;;;;-141.50;100.00;63355.56;4971484;28;20058;-85
2021/10/20 00:41:09;;;;;;;6.75;3.10;;;;;;;-141.50;100.00;63355.56;4973261;28;20336;-84
2021/10/20 00:43:35;;;;;;;4.00;2.55;;;;;;;-141.50;100.00;63355.56;4971197;28;20495;-83
2021/10/20 00:46:02;;;;;;;9.15;2.95;;;;;;;-141.50;100.00;63355.56;4972305;28;20406;-84
2021/10/20 00:48:29;;;;;;;5.13;2.80;;;;;;;-141.50;100.00;63355.56;4955610;28;20098;-80
2021/10/20 00:50:56;;;;;;;4.65;2.42;;;;;;;-141.50;100.00;63355.56;4973297;28;20042;-82
2021/10/20 00:53:22;;;;;;;5.35;2.80;;;;;;;-141.50;100.00;63355.56;4972602;28;20090;-84
2021/10/20 00:55:50;;;;;;;4.30;2.50;;;;;;;-141.50;100.00;63355.56;4973413;28;20434;-84
2021/10/20 00:58:18;;;;;;;3.90;2.45;;;;;;;-141.50;100.00;63355.56;4976705;28;20403;-83
2021/10/20 01:00:44;;;;;;;4.70;2.65;;;;;;;-141.50;100.00;63355.56;4975054;28;20105;-83
2021/10/20 01:03:12;;;;;;;4.45;2.45;;;;;;;-141.50;100.00;63355.56;4973765;28;20175;-84
2021/10/20 01:05:38;;;;;;;4.78;2.53;;;;;;;-141.50;100.00;63355.56;4979766;28;20042;-84
2021/10/20 01:08:05;;;;;;;4.07;2.60;;;;;;;-141.50;100.00;63355.56;4987759;28;20051;-83
2021/10/20 01:10:32;;;;;;;5.30;2.40;;;;;;;-141.50;100.00;63355.56;4970309;28;20046;-83
2021/10/20 01:12:58;;;;;;;4.15;2.47;;;;;;;-141.50;100.00;63355.56;4986478;28;20045;-85
2021/10/20 01:15:28;;;;;;;4.22;2.45;;;;;;;-141.50;100.00;63355.56;4975505;28;20054;-85
2021/10/20 01:17:55;;;;;;;3.88;2.50;;;;;;;-141.50;100.00;63355.56;4975919;28;20058;-84
2021/10/20 01:20:30;;;;;;;7.10;2.33;;;;;;;-141.50;100.00;63355.56;4976221;28;20407;-85
2021/10/20 01:22:57;;;;;;;6.13;2.47;;;;;;;-141.50;100.00;63355.56;4958453;28;20125;-84
2021/10/20 01:25:24;;;;;;;5.30;2.33;;;;;;;-141.50;100.00;63355.56;4973061;28;20400;-84
2021/10/20 01:27:50;;;;;;;4.65;2.13;;;;;;;-141.50;100.00;63355.56;4940209;28;20058;-82
2021/10/20 01:30:17;;;;;;;7.63;2.30;;;;;;;-141.50;100.00;63355.56;4971697;28;20050;-84
2021/10/20 01:32:44;;;;;;;4.78;2.30;;;;;;;-141.50;100.00;63355.56;4973959;28;20042;-83
2021/10/20 01:35:10;;;;;;;3.58;2.15;;;;;;;-141.50;100.00;63355.56;4973304;28;20041;-84
2021/10/20 01:37:38;;;;;;;4.57;2.35;;;;;;;-141.50;100.00;63355.56;4974334;28;20069;-84
2021/10/20 01:40:07;;;;;;;3.22;2.10;;;;;;;-141.50;100.00;63355.56;4941084;28;20050;-84
2021/10/20 01:42:34;;;;;;;7.00;2.10;;;;;;;-141.50;100.00;63355.56;4972019;28;20047;-84
2021/10/20 01:45:03;;;;;;;3.45;2.00;;;;;;;-141.50;100.00;63355.56;4956221;28;20035;-84
2021/10/20 01:47:29;;;;;;;4.90;2.25;;;;;;;-141.50;100.00;63355.56;4973570;28;20042;-84
2021/10/20 01:49:56;;;;;;;3.67;2.38;;;;;;;-141.50;100.00;63355.56;4973865;28;20077;-84
2021/10/20 01:52:22;;;;;;;3.90;2.50;;;;;;;-141.50;100.00;63355.56;4972601;28;20503;-84
2021/10/20 01:54:49;;;;;;;4.30;2.10;;;;;;;-141.50;100.00;63355.56;4974067;28;20486;-84
2021/10/20 01:57:16;;;;;;;3.00;2.05;;;;;;;-141.50;100.00;63355.56;4955743;28;20521;-86
2021/10/20 01:59:42;;;;;;;4.20;2.33;;;;;;;-141.50;100.00;63355.56;4956077;28;20058;-83
2021/10/20 02:02:19;;;;;;;4.82;2.22;;;;;;;-141.50;100.00;63355.56;4975038;28;20425;-84
2021/10/20 02:04:47;;;;;;;3.63;2.10;;;;;;;-141.50;100.00;63355.56;4970865;28;20129;-84
2021/10/20 02:07:14;;;;;;;3.78;2.10;;;;;;;-141.50;100.00;63355.56;4974023;28;20518;-84
2021/10/20 02:09:40;;;;;;;3.40;2.20;;;;;;;-141.50;100.00;63355.56;4942476;28;20537;-85
2021/10/20 02:12:08;;;;;;;3.40;2.10;;;;;;;-141.50;100.00;63355.56;4974554;28;20098;-83
2021/10/20 02:14:35;;;;;;;4.35;2.03;;;;;;;-141.50;100.00;63355.56;4974491;28;20105;-84
2021/10/20 02:17:03;;;;;;;3.97;2.15;;;;;;;-141.50;100.00;63355.56;4957142;28;20326;-84
2021/10/20 02:19:30;;;;;;;5.07;2.10;;;;;;;-141.50;100.00;63355.56;4955823;28;20347;-83
2021/10/20 02:22:01;;;;;;;5.00;2.28;;;;;;;-141.50;100.00;63355.56;4982014;28;20133;-86
2021/10/20 02:24:27;;;;;;;4.07;1.92;;;;;;;-141.50;100.00;63355.56;4978451;28;20031;-86
2021/10/20 02:26:54;;;;;;;4.03;2.20;;;;;;;-141.50;100.00;63355.56;4962623;28;20043;-84
2021/10/20 02:29:21;;;;;;;3.75;2.30;;;;;;;-141.50;100.00;63355.56;4972301;28;20051;-85
2021/10/20 02:31:48;;;;;;;8.18;2.28;;;;;;;-141.50;100.00;63355.56;4939043;28;20046;-85
2021/10/20 02:34:16;;;;;;;3.25;1.98;;;;;;;-141.50;100.00;63355.56;4971638;28;20045;-84
2021/10/20 02:36:43;;;;;;;4.00;2.10;;;;;;;-141.50;100.00;63355.56;4971274;28;20051;-84
2021/10/20 02:39:11;;;;;;;3.80;2.15;;;;;;;-141.50;100.00;63355.56;4973601;28;20042;-85
2021/10/20 02:41:37;;;;;;;3.05;2.10;;;;;;;-141.50;100.00;63355.56;4958493;28;20418;-84
2021/10/20 02:44:05;;;;;;;5.07;2.08;;;;;;;-141.50;100.00;63355.56;4987692;23;20061;-79
2021/10/20 02:46:32;;;;;;;4.82;2.40;;;;;;;-141.50;100.00;63355.56;4957502;28;20050;-79
2021/10/20 02:48:59;;;;;;;4.15;2.25;;;;;;;-141.50;100.00;63355.56;4975866;28;20058;-80
2021/10/20 02:51:29;;;;;;;3.40;2.10;;;;;;;-141.50;100.00;63355.56;4974743;28;20047;-78
2021/10/20 02:53:57;;;;;;;3.55;2.20;;;;;;;-141.50;100.00;63355.56;4967028;28;20057;-79
2021/10/20 02:56:25;;;;;;;3.53;2.00;;;;;;;-141.50;100.00;63355.56;4973792;28;20057;-78
2021/10/20 02:58:52;;;;;;;8.13;1.90;;;;;;;-141.50;100.00;63355.56;4974924;28;20046;-79
2021/10/20 03:01:18;;;;;;;4.40;2.22;;;;;;;-141.50;100.00;63355.56;4957202;28;20480;-79
2021/10/20 03:03:46;;;;;;;5.22;2.17;;;;;;;-141.50;100.00;63355.56;4974153;28;20058;-79
2021/10/20 03:06:16;;;;;;;3.72;1.98;;;;;;;-141.50;100.00;63355.56;4974791;28;20108;-78
2021/10/20 03:08:43;;;;;;;5.07;2.47;;;;;;;-141.50;100.00;63355.56;4973606;28;20047;-79
2021/10/20 03:11:10;;;;;;;2.90;1.80;;;;;;;-141.50;100.00;63355.56;4993356;28;20057;-79
2021/10/20 03:13:37;;;;;;;4.10;2.28;;;;;;;-141.50;100.00;63355.56;4993538;28;20050;-79
2021/10/20 03:16:04;;;;;;;3.45;2.15;;;;;;;-141.50;100.00;63355.56;4977014;28;20475;-79
2021/10/20 03:18:31;;;;;;;3.67;2.20;;;;;;;-141.50;100.00;63355.56;4994037;28;20420;-79
2021/10/20 03:20:57;;;;;;;4.63;2.00;;;;;;;-141.50;100.00;63355.56;4976546;28;20077;-78
2021/10/20 03:23:24;;;;;;;2.60;2.05;;;;;;;-141.50;100.00;63355.56;4975015;28;20437;-75
2021/10/20 03:25:51;;;;;;;2.97;1.73;;;;;;;-141.50;100.00;63355.56;4993206;28;20039;-79
2021/10/20 03:28:17;;;;;;;4.97;1.95;;;;;;;-141.50;100.00;63355.56;4973925;28;20052;-79
2021/10/20 03:30:44;;;;;;;3.92;2.25;;;;;;;-141.50;100.00;63355.56;4953566;28;20047;-79
2021/10/20 03:33:10;;;;;;;3.15;2.10;;;;;;;-141.50;100.00;63355.56;4957281;28;20054;-79
2021/10/20 03:35:38;;;;;;;3.33;2.00;;;;;;;-141.50;100.00;63355.56;4957380;28;20042;-79
2021/10/20 03:38:07;;;;;;;3.13;1.77;;;;;;;-141.50;100.00;63355.56;4973768;28;20050;-78
2021/10/20 03:40:34;;;;;;;2.88;1.92;;;;;;;-141.50;100.00;63355.56;4973870;28;20054;-78
2021/10/20 03:43:02;;;;;;;6.15;1.70;;;;;;;-141.50;100.00;63355.56;4973679;28;20043;-78
2021/10/20 03:45:29;;;;;;;4.03;1.95;;;;;;;-141.50;100.00;63355.56;4973901;28;20043;-78
2021/10/20 03:47:56;;;;;;;4.57;2.08;;;;;;;-141.50;100.00;63355.56;4957115;28;20047;-79
2021/10/20 03:50:24;;;;;;;3.13;2.00;;;;;;;-141.50;100.00;63355.56;4968460;28;20039;-79
2021/10/20 03:52:50;;;;;;;2.55;1.80;;;;;;;-141.50;100.00;63355.56;4974799;28;20046;-78
2021/10/20 03:55:17;;;;;;;4.13;2.00;;;;;;;-141.50;100.00;63355.56;4940154;28;20051;-79
2021/10/20 03:57:44;;;;;;;3.25;1.42;;;;;;;-141.50;100.00;63355.56;4956570;28;20542;-78
2021/10/20 04:00:13;;;;;;;4.57;1.88;;;;;;;-141.50;100.00;63355.56;4973812;28;20043;-78
2021/10/20 04:02:44;;;;;;;2.72;1.80;;;;;;;-141.50;100.00;63355.56;4957284;28;20074;-79
2021/10/20 04:05:13;;;;;;;4.10;2.13;;;;;;;-141.50;100.00;63355.56;4973700;28;20495;-78
2021/10/20 04:07:40;;;;;;;3.22;1.95;;;;;;;-141.50;100.00;63355.56;4955478;28;20054;-78
2021/10/20 04:10:12;;;;;;;2.78;1.58;;;;;;;-141.50;100.00;63355.56;4955803;28;20053;-78
2021/10/20 04:12:42;;;;;;;2.92;1.70;;;;;;;-141.50;100.00;63355.56;4955397;28;20459;-78
2021/10/20 04:15:10;;;;;;;2.95;1.75;;;;;;;-141.50;100.00;63355.56;4970824;28;20423;-77
2021/10/20 04:17:38;;;;;;;3.80;2.10;;;;;;;-141.50;100.00;63355.56;4954836;28;20046;-77
2021/10/20 04:20:09;;;;;;;4.65;1.67;;;;;;;-141.50;100.00;63355.56;4971744;28;20046;-77
2021/10/20 04:22:36;;;;;;;3.22;1.95;;;;;;;-141.50;100.00;63355.56;4971025;28;20054;-78
2021/10/20 04:25:04;;;;;;;5.30;1.60;;;;;;;-141.50;100.00;63355.56;4954449;28;20074;-77
2021/10/20 04:27:32;;;;;;;2.85;1.63;;;;;;;-141.50;100.00;63355.56;4971489;28;20049;-77
2021/10/20 04:29:59;;;;;;;6.30;1.63;;;;;;;-141.50;100.00;63355.56;4939185;28;20067;-80
2021/10/20 04:32:27;;;;;;;3.03;1.60;;;;;;;-141.50;100.00;63355.56;4939747;28;20066;-79
2021/10/20 04:34:54;;;;;;;2.25;1.35;;;;;;;-141.50;100.00;63355.56;4957923;28;20046;-79
2021/10/20 04:37:25;;;;;;;4.15;1.70;;;;;;;-141.50;100.00;63355.56;4977880;28;20229;-79
2021/10/20 04:39:53;;;;;;;2.75;1.50;;;;;;;-141.50;100.00;63355.56;4976665;28;20495;-77
2021/10/20 04:42:20;;;;;;;4.25;1.55;;;;;;;-141.50;100.00;63355.56;4980220;28;20109;-78
2021/10/20 04:44:47;;;;;;;2.70;1.70;;;;;;;-141.50;100.00;63355.56;4993344;28;20031;-77
2021/10/20 04:47:14;;;;;;;3.55;1.80;;;;;;;-141.50;100.00;63355.56;4973878;28;20035;-79
2021/10/20 04:49:42;;;;;;;3.17;1.70;;;;;;;-141.50;100.00;63355.56;4939131;29;20453;-77
2021/10/20 04:52:09;;;;;;;3.10;1.70;;;;;;;-141.50;100.00;63355.56;4952511;29;20055;-78
2021/10/20 04:54:36;;;;;;;2.40;1.60;;;;;;;-141.50;100.00;63355.56;4950583;29;20303;-77
2021/10/20 04:57:03;;;;;;;3.25;1.70;;;;;;;-141.50;100.00;63355.56;4952513;29;20488;-78
2021/10/20 04:59:31;;;;;;;4.28;1.60;;;;;;;-141.50;100.00;63355.56;4951897;29;20441;-78
2021/10/20 05:01:58;;;;;;;4.18;1.83;;;;;;;-141.50;100.00;63355.56;4952170;28;20091;-79
2021/10/20 05:04:25;;;;;;;4.57;1.75;;;;;;;-141.50;100.00;63355.56;4935351;29;20369;-78
2021/10/20 05:06:52;;;;;;;2.33;1.45;;;;;;;-141.50;100.00;63355.56;4936258;29;20337;-78
2021/10/20 05:09:18;;;;;;;7.78;1.67;;;;;;;-141.50;100.00;63355.56;4939313;29;20039;-79
2021/10/20 05:11:45;;;;;;;4.03;1.80;;;;;;;-141.50;100.00;63355.56;4960311;29;20051;-79
2021/10/20 05:14:12;;;;;;;3.65;1.80;;;;;;;-141.50;100.00;63355.56;4962470;29;20039;-78
2021/10/20 05:16:38;;;;;;;4.80;1.52;;;;;;;-141.50;100.00;63355.56;4965538;29;20039;-78
2021/10/20 05:19:05;;;;;;;3.88;1.70;;;;;;;-141.50;100.00;63355.56;4965079;29;20075;-79
2021/10/20 05:21:31;;;;;;;3.05;1.80;;;;;;;-141.50;100.00;63355.56;4961333;29;20411;-79
2021/10/20 05:23:58;;;;;;;2.78;1.70;;;;;;;-141.50;100.00;63355.56;4951923;29;20043;-78
2021/10/20 05:26:25;;;;;;;3.70;1.90;;;;;;;-141.50;100.00;63355.56;4951765;29;20054;-78
2021/10/20 05:28:52;;;;;;;2.30;1.60;;;;;;;-141.50;100.00;63355.56;4952899;28;20043;-78
2021/10/20 05:31:19;;;;;;;2.50;1.33;;;;;;;-141.50;100.00;63355.56;4951828;29;20062;-78
2021/10/20 05:33:45;;;;;;;3.00;1.60;;;;;;;-141.50;100.00;63355.56;4937145;28;20111;-78
2021/10/20 05:36:12;;;;;;;6.22;1.58;;;;;;;-141.50;100.00;63355.56;4970701;28;20054;-77
2021/10/20 05:38:38;;;;;;;2.72;1.73;;;;;;;-141.50;100.00;63355.56;4953220;28;20058;-78
2021/10/20 05:41:07;;;;;;;6.13;1.60;;;;;;;-141.50;100.00;63355.56;4971090;28;20122;-78
2021/10/20 05:43:33;;;;;;;3.05;1.60;;;;;;;-141.50;100.00;63355.56;4970669;28;20054;-78
2021/10/20 05:46:00;;;;;;;4.90;1.70;;;;;;;-141.50;100.00;63355.56;4953556;28;20061;-77
2021/10/20 05:48:26;;;;;;;2.90;1.50;;;;;;;-141.50;100.00;63355.56;4970509;28;20129;-78
2021/10/20 05:50:53;;;;;;;5.82;1.60;;;;;;;-141.50;100.00;63355.56;4970941;28;20063;-77
2021/10/20 05:53:20;;;;;;;3.17;1.40;;;;;;;-141.50;100.00;63355.56;4970879;28;20069;-78
2021/10/20 05:55:47;;;;;;;3.83;1.63;;;;;;;-141.50;100.00;63355.56;4970903;28;20235;-78
2021/10/20 05:58:14;;;;;;;2.38;1.40;;;;;;;-141.50;100.00;63355.56;4937081;28;20539;-78
2021/10/20 06:00:41;;;;;;;7.82;1.60;;;;;;;-141.50;100.00;63355.56;4970685;28;20053;-78
2021/10/20 06:03:08;;;;;;;3.83;1.70;;;;;;;-141.50;100.00;63355.56;4954008;28;20050;-79
2021/10/20 06:05:36;;;;;;;4.47;1.50;;;;;;;-141.50;100.00;63355.56;4970142;28;20065;-79
2021/10/20 06:08:03;;;;;;;2.33;1.48;;;;;;;-141.50;100.00;63355.56;4969929;28;20039;-79
2021/10/20 06:10:30;;;;;;;7.97;2.03;;;;;;;-141.50;100.00;63355.56;4953334;28;20050;-80
2021/10/20 06:12:56;;;;;;;3.95;1.60;;;;;;;-141.50;100.00;63355.56;4970921;28;20050;-79
2021/10/20 06:15:24;;;;;;;3.40;1.55;;;;;;;-141.50;100.00;63355.56;4974261;28;20507;-79
2021/10/20 06:18:03;;;;;;;2.33;1.70;;;;;;;-141.50;100.00;63355.56;4975769;28;20046;-78
2021/10/20 06:20:30;;;;;;;4.82;1.60;;;;;;;-141.50;100.00;63355.56;4975629;28;20058;-79
2021/10/20 06:22:56;;;;;;;3.38;1.40;;;;;;;-141.50;100.00;63355.56;4975241;28;20054;-78
2021/10/20 06:25:23;;;;;;;2.78;1.48;;;;;;;-141.50;100.00;63355.56;4957105;28;20479;-78
2021/10/20 06:27:50;;;;;;;3.00;1.50;;;;;;;-141.50;100.00;63355.56;4976075;28;20046;-79
2021/10/20 06:30:17;;;;;;;2.88;1.48;;;;;;;-141.50;100.00;63355.56;4957521;28;20042;-78
2021/10/20 06:32:45;;;;;;;2.35;1.48;;;;;;;-141.50;100.00;63355.56;4958449;28;20264;-78
2021/10/20 06:35:12;;;;;;;2.83;1.60;;;;;;;-141.50;100.00;63355.56;4980240;28;20047;-78
2021/10/20 06:37:39;;;;;;;4.38;1.70;;;;;;;-141.50;100.00;63355.56;4981802;28;20105;-79
2021/10/20 06:40:07;;;;;;;2.03;1.42;;;;;;;-141.50;100.00;63355.56;4976675;28;20046;-79
2021/10/20 06:42:33;;;;;;;3.22;1.58;;;;;;;-141.50;100.00;63355.56;4979277;28;20072;-78
2021/10/20 06:45:00;;;;;;;4.10;1.45;;;;;;;-141.50;100.00;63355.56;4960312;28;20049;-77
2021/10/20 06:47:27;;;;;;;3.28;1.65;;;;;;;-141.50;100.00;63355.56;4979910;28;20043;-77
2021/10/20 06:49:53;;;;;;;4.22;1.75;;;;;;;-141.50;100.00;63355.56;4978349;28;20054;-78
2021/10/20 06:52:21;;;;;;;4.97;1.90;;;;;;;-141.50;100.00;63355.56;4977056;28;20058;-77
2021/10/20 06:54:48;;;;;;;3.33;1.80;;;;;;;-141.50;100.00;63355.56;4958460;28;20074;-79
2021/10/20 06:57:15;;;;;;;5.72;1.90;;;;;;;-141.50;100.00;63355.56;4958875;28;20039;-79
2021/10/20 06:59:43;;;;;;;5.85;1.80;;;;;;;-141.50;100.00;63355.56;4977724;28;20077;-78
2021/10/20 07:02:09;;;;;;;3.78;1.70;;;;;;;-141.50;100.00;63355.56;4963625;28;20046;-77
2021/10/20 07:04:36;;;;;;;3.55;1.95;;;;;;;-141.50;100.00;63355.56;4978926;28;20388;-79
2021/10/20 07:07:05;;;;;;;5.05;1.55;;;;;;;-141.50;100.00;63355.56;4976221;28;20043;-78
2021/10/20 07:09:31;;;;;;;3.45;1.67;;;;;;;-141.50;100.00;63355.56;4962552;28;20127;-78
2021/10/20 07:11:59;;;;;;;3.08;1.40;;;;;;;-141.50;100.00;63355.56;4976739;28;20423;-78
2021/10/20 07:14:25;;;;;;;6.32;1.77;;;;;;;-141.50;100.00;63355.56;4973523;28;20516;-77
2021/10/20 07:16:52;;;;;;;3.63;1.40;;;;;;;-141.50;100.00;63355.56;4973132;28;20062;-78
2021/10/20 07:19:19;;;;;;;4.70;2.00;;;;;;;-141.50;100.00;63355.56;4973750;28;20051;-78
2021/10/20 07:21:45;;;;;;;4.07;1.63;;;;;;;-141.50;100.00;63355.56;4973848;28;20058;-78
2021/10/20 07:24:12;;;;;;;3.42;1.80;;;;;;;-141.50;100.00;63355.56;4972427;28;20042;-77
2021/10/20 07:26:38;;;;;;;4.50;1.95;;;;;;;-141.50;100.00;63355.56;4938184;28;20074;-78
2021/10/20 07:29:05;;;;;;;6.80;1.80;;;;;;;-141.50;100.00;63355.56;4956059;28;20050;-79
2021/10/20 07:31:32;;;;;;;4.72;1.50;;;;;;;-141.50;100.00;63355.56;4973280;28;20042;-78
2021/10/20 07:34:00;;;;;;;4.90;1.45;;;;;;;-141.50;100.00;63355.56;4975948;28;20074;-77
2021/10/20 07:36:27;;;;;;;2.03;1.30;;;;;;;-141.50;100.00;63355.56;4957704;28;20116;-77
2021/10/20 07:38:55;;;;;;;5.90;1.58;;;;;;;-141.50;100.00;63355.56;4955923;28;20039;-77
2021/10/20 07:41:22;;;;;;;3.17;1.60;;;;;;;-141.50;100.00;63355.56;4972817;28;20050;-78
2021/10/20 07:43:49;;;;;;;5.45;1.80;;;;;;;-141.50;100.00;63355.56;4954810;28;20051;-76
2021/10/20 07:46:15;;;;;;;3.42;1.40;;;;;;;-141.50;100.00;63355.56;4971167;28;20101;-78
2021/10/20 07:48:42;;;;;;;4.15;1.70;;;;;;;-141.50;100.00;63355.56;4973205;28;20152;-77
2021/10/20 07:51:08;;;;;;;5.63;1.80;;;;;;;-141.50;100.00;63355.56;4972356;28;20053;-78
2021/10/20 07:53:35;;;;;;;2.55;1.50;;;;;;;-141.50;100.00;63355.56;4955485;28;20058;-78
2021/10/20 07:56:02;;;;;;;5.18;1.60;;;;;;;-141.50;100.00;63355.56;4955123;28;20109;-78
2021/10/20 07:58:28;;;;;;;3.10;1.58;;;;;;;-141.50;100.00;63355.56;4955517;28;20046;-78
2021/10/20 08:00:55;;;;;;;6.25;1.50;;;;;;;-141.50;100.00;63355.56;4955268;28;20130;-77
2021/10/20 08:03:22;;;;;;;2.63;1.77;;;;;;;-141.50;100.00;63355.56;4972786;28;20046;-78
2021/10/20 08:05:49;;;;;;;3.53;1.83;;;;;;;-141.50;100.00;63355.56;4955110;28;20043;-77
2021/10/20 08:08:15;;;;;;;5.68;1.42;;;;;;;-141.50;100.00;63355.56;4972887;28;20046;-78
2021/10/20 08:10:42;;;;;;;3.58;1.52;;;;;;;-141.50;100.00;63355.56;4972962;28;20551;-78
2021/10/20 08:13:09;;;;;;;3.92;1.50;;;;;;;-141.50;100.00;63355.56;4972750;28;20047;-79
2021/10/20 08:15:36;;;;;;;4.30;1.50;;;;;;;-141.50;100.00;63355.56;4972624;28;20046;-78
2021/10/20 08:18:05;;;;;;;3.72;1.73;;;;;;;-141.50;100.00;63355.56;4956082;28;20039;-78
2021/10/20 08:20:34;;;;;;;3.83;1.70;;;;;;;-141.50;100.00;63355.56;4955795;28;20410;-78
2021/10/20 08:23:02;;;;;;;2.67;1.80;;;;;;;-141.50;100.00;63355.56;4972426;28;20050;-78
2021/10/20 08:25:30;;;;;;;4.32;1.50;;;;;;;-141.50;100.00;63355.56;4955677;28;20058;-79
2021/10/20 08:27:57;;;;;;;2.88;1.80;;;;;;;-141.50;100.00;63355.56;4972346;28;20043;-78
2021/10/20 08:30:23;;;;;;;7.97;1.70;;;;;;;-141.50;100.00;63355.56;4988409;23;20098;-84
2021/10/20 08:32:53;;;;;;;4.78;1.95;;;;;;;-141.50;100.00;63355.56;4958619;28;20053;-87
2021/10/20 08:35:20;;;;;;;5.88;1.30;;;;;;;-141.50;100.00;63355.56;4976972;28;20053;-85
2021/10/20 08:38:03;;;;;;;6.15;1.85;;;;;;;-141.50;100.00;63355.56;4957492;28;20307;-87
2021/10/20 08:40:35;;;;;;;3.30;1.95;;;;;;;-141.50;100.00;63355.56;4978734;28;20051;-87
2021/10/20 08:43:03;;;;;;;6.65;1.75;;;;;;;-141.50;100.00;63355.56;4943621;28;20058;-86
2021/10/20 08:45:30;;;;;;;3.25;1.70;;;;;;;-141.50;100.00;63355.56;4971446;23;20057;-85
2021/10/20 08:47:58;;;;;;;2.47;1.58;;;;;;;-141.50;100.00;63355.56;4957543;28;20057;-85
2021/10/20 08:50:29;;;;;;;5.93;1.63;;;;;;;-141.50;100.00;63355.56;4977778;28;20619;-85
2021/10/20 08:52:56;;;;;;;2.97;1.70;;;;;;;-141.50;100.00;63355.56;4960913;28;20361;-84
2021/10/20 08:55:23;;;;;;;4.45;1.48;;;;;;;-141.50;100.00;63355.56;4964852;28;20117;-85
2021/10/20 08:57:52;;;;;;;2.65;1.40;;;;;;;-141.50;100.00;63355.56;4977629;28;20066;-83
2021/10/20 09:00:21;;;;;;;3.60;1.70;;;;;;;-141.50;100.00;63355.56;4979041;28;20057;-81
2021/10/20 09:02:49;;;;;;;3.95;1.80;;;;;;;-141.50;100.00;63355.56;4979645;28;20050;-81
2021/10/20 09:05:21;;;;;;;5.05;1.65;;;;;;;-141.50;100.00;63355.56;4964343;28;20074;-81
2021/10/20 09:07:53;;;;;;;3.25;1.70;;;;;;;-141.50;100.00;63355.56;4962879;28;20039;-82
2021/10/20 09:10:22;;;;;;;2.08;1.38;;;;;;;-141.50;100.00;63355.56;4963221;28;20055;-83
2021/10/20 09:12:50;;;;;;;6.05;1.60;;;;;;;-141.50;100.00;63355.56;4962611;28;20054;-82
2021/10/20 09:15:22;;;;;;;3.97;1.55;;;;;;;-141.50;100.00;63355.56;4962133;28;20506;-81
2021/10/20 09:18:04;;;;;;;4.35;1.67;;;;;;;-141.50;100.00;63355.56;4977178;28;20114;-85
2021/10/20 09:20:39;;;;;;;3.75;1.70;;;;;;;-141.50;100.00;63355.56;4961385;28;20498;-85
2021/10/20 09:23:07;;;;;;;3.80;1.80;;;;;;;-141.50;100.00;63355.56;4975921;28;20062;-84
2021/10/20 09:25:40;;;;;;;3.90;1.92;;;;;;;-141.50;100.00;63355.56;4942913;28;20085;-82
2021/10/20 09:28:13;;;;;;;3.80;2.13;;;;;;;-141.50;100.00;63355.56;4961768;28;20039;-83
2021/10/20 09:30:43;;;;;;;4.25;2.28;;;;;;;-141.50;100.00;63355.56;4962260;28;20137;-82
2021/10/20 09:33:10;;;;;;;3.13;1.75;;;;;;;-141.50;100.00;63355.56;4961880;28;20055;-82
2021/10/20 09:35:38;;;;;;;5.05;1.80;;;;;;;-141.50;100.00;63355.56;4956998;28;20069;-82
2021/10/20 09:38:05;;;;;;;2.72;1.70;;;;;;;-141.50;100.00;63355.56;4974634;28;20133;-83
2021/10/20 09:40:43;;;;;;;2.80;1.73;;;;;;;-141.50;100.00;63355.56;4973973;28;20049;-82
2021/10/20 09:43:18;;;;;;;9.18;1.88;;;;;;;-141.50;100.00;63355.56;4959593;28;20050;-83
2021/10/20 09:45:48;;;;;;;5.80;1.80;;;;;;;-141.50;100.00;63355.56;4950156;28;20061;-85
2021/10/20 09:48:21;;;;;;;3.65;1.50;;;;;;;-141.50;100.00;63355.56;4965546;28;20045;-83
2021/10/20 09:50:57;;;;;;;4.20;1.80;;;;;;;-141.50;100.00;63355.56;4958672;28;20066;-84
2021/10/20 09:53:28;;;;;;;5.78;1.77;;;;;;;-141.50;100.00;63355.56;4958171;28;20392;-83
2021/10/20 09:56:03;;;;;;;2.53;1.50;;;;;;;-141.50;100.00;63355.56;4959785;28;20055;-84
2021/10/20 09:58:32;;;;;;;4.47;2.08;;;;;;;-141.50;100.00;63355.56;4959304;28;20113;-82
2021/10/20 10:00:59;;;;;;;7.50;2.10;;;;;;;-141.50;100.00;63355.56;4976979;28;20054;-83
2021/10/20 10:03:27;;;;;;;4.20;2.00;;;;;;;-141.50;100.00;63355.56;4961410;28;20070;-82
2021/10/20 10:05:54;;;;;;;2.40;1.80;;;;;;;-141.50;100.00;63355.56;4945999;28;20053;-82
2021/10/20 10:08:21;;;;;;;7.28;1.58;;;;;;;-141.50;100.00;63355.56;4960734;28;20391;-85
2021/10/20 10:10:51;;;;;;;2.97;1.77;;;;;;;-141.50;100.00;63355.56;4959351;28;20072;-81
2021/10/20 10:13:23;;;;;;;4.43;1.67;;;;;;;-141.50;100.00;63355.56;4976627;28;20246;-83
2021/10/20 10:15:53;;;;;;;5.13;2.15;;;;;;;-141.50;100.00;63355.56;4978655;28;20483;-82
2021/10/20 10:18:20;;;;;;;9.23;2.28;;;;;;;-141.50;100.00;63355.56;4944507;28;20089;-83
2021/10/20 10:20:47;;;;;;;6.10;1.90;;;;;;;-141.50;100.00;63355.56;4960988;28;20047;-83
2021/10/20 10:23:18;;;;;;;2.38;1.60;;;;;;;-141.50;100.00;63355.56;4982832;28;20120;-82
2021/10/20 10:25:56;;;;;;;4.60;1.90;;;;;;;-141.50;100.00;63355.56;4958997;28;20039;-82
2021/10/20 10:28:26;;;;;;;4.10;1.80;;;;;;;-141.50;100.00;63355.56;4957909;28;20051;-82
2021/10/20 10:31:02;;;;;;;4.60;1.88;;;;;;;-141.50;100.00;63355.56;4959389;28;20047;-82
2021/10/20 10:33:32;;;;;;;8.32;1.98;;;;;;;-141.50;100.00;63355.56;4958000;28;20057;-83
2021/10/20 10:36:19;;;;;;;8.27;2.00;;;;;;;-141.50;100.00;63355.56;4943093;28;20061;-83
2021/10/20 10:38:49;;;;;;;3.90;2.17;;;;;;;-141.50;100.00;63355.56;4976206;28;20043;-80
2021/10/20 10:41:24;;;;;;;4.32;2.00;;;;;;;-141.50;100.00;63355.56;4942456;28;20414;-82
2021/10/20 10:44:03;;;;;;;2.37;1.93;;;;;;;-141.50;100.00;63355.56;4957663;28;20069;-82
2021/10/20 10:46:36;;;;;;;4.32;2.30;;;;;;;-141.50;100.00;63355.56;4956315;28;20046;-83
2021/10/20 10:49:04;;;;;;;5.45;1.95;;;;;;;-141.50;100.00;63355.56;4940454;28;20043;-83
2021/10/20 10:51:31;;;;;;;2.70;1.90;;;;;;;-141.50;100.00;63355.56;4959448;28;20055;-83
2021/10/20 10:53:59;;;;;;;4.10;2.15;;;;;;;-141.50;100.00;63355.56;4958159;28;20061;-83
2021/10/20 10:56:26;;;;;;;3.40;1.92;;;;;;;-141.50;100.00;63355.56;4954520;28;20043;-84
2021/10/20 10:59:00;;;;;;;3.70;1.90;;;;;;;-141.50;100.00;63355.56;4938531;28;20415;-84
2021/10/20 11:01:39;;;;;;;3.22;1.70;;;;;;;-141.50;100.00;63355.56;4975499;28;20038;-83
2021/10/20 11:04:24;;;;;;;3.42;2.13;;;;;;;-141.50;100.00;63355.56;4943444;28;20130;-84
2021/10/20 11:06:53;;;;;;;7.10;2.30;;;;;;;-141.50;100.00;63355.56;4975759;28;20379;-83
2021/10/20 11:09:23;;;;;;;10.38;2.40;;;;;;;-141.50;100.00;63355.56;4960768;28;20066;-84
2021/10/20 11:11:53;;;;;;;3.83;2.03;;;;;;;-141.50;100.00;63355.56;4959377;28;20216;-84
2021/10/20 11:14:22;;;;;;;5.05;2.17;;;;;;;-141.50;100.00;63355.56;4944299;28;20134;-84